Terminal Aerodrome Forecast
Issued by NWS Sterling, VA

Home | Current Version | Previous Version | Text Only | Print | Product List | Glossary On
Versions: 1 2 3 4 5 6 7 8 9 10 11 12 13 14 15 16 17 18 19 20 21 22 23 24 25 26 27 28
163
FTUS41 KLWX 270538
TAFBWI
TAF
KBWI 270538Z 2706/2812 VRB03KT P6SM SCT050 OVC130
     FM270800 VRB03KT 6SM -RA SCT025 OVC050
     FM270900 01005KT 3SM RA SCT008 BKN015 OVC050
     FM271100 02006KT 3SM -RA BR SCT008 BKN015 OVC050
     FM271400 02006KT P6SM SCT008 BKN015 OVC050
     FM271600 36005KT P6SM BKN015 BKN050
     FM272000 VRB04KT P6SM SCT060 BKN130=

USA.gov is the U.S. government's official web portal to all federal, state and local government web resources and services.